sensor_id;sensor_type;location;lat;lon;timestamp;pressure;altitude;pressure_sealevel;temperature;humidity
66524;BME280;53350;52.210;5.160;2023-04-05T00:01:51;102616.56;;;6.67;57.75
66524;BME280;53350;52.210;5.160;2023-04-05T00:04:18;102609.66;;;6.65;57.19
66524;BME280;53350;52.210;5.160;2023-04-05T00:06:45;102616.44;;;6.63;57.55
66524;BME280;53350;52.210;5.160;2023-04-05T00:09:16;102606.13;;;6.61;57.72
66524;BME280;53350;52.210;5.160;2023-04-05T00:11:43;102611.22;;;6.59;57.74
66524;BME280;53350;52.210;5.160;2023-04-05T00:14:11;102608.66;;;6.59;58.04
66524;BME280;53350;52.210;5.160;2023-04-05T00:16:37;102612.97;;;6.60;57.89
66524;BME280;53350;52.210;5.160;2023-04-05T00:19:04;102609.47;;;6.58;57.83
66524;BME280;53350;52.210;5.160;2023-04-05T00:21:30;102612.91;;;6.59;57.62
66524;BME280;53350;52.210;5.160;2023-04-05T00:23:58;102608.69;;;6.61;57.56
66524;BME280;53350;52.210;5.160;2023-04-05T00:26:25;102604.34;;;6.58;58.06
66524;BME280;53350;52.210;5.160;2023-04-05T00:28:52;102599.16;;;6.57;57.67
66524;BME280;53350;52.210;5.160;2023-04-05T00:31:19;102592.31;;;6.56;57.79
66524;BME280;53350;52.210;5.160;2023-04-05T00:33:46;102601.59;;;6.52;57.85
66524;BME280;53350;52.210;5.160;2023-04-05T00:36:14;102589.34;;;6.43;57.95
66524;BME280;53350;52.210;5.160;2023-04-05T00:38:42;102591.09;;;6.44;57.95
66524;BME280;53350;52.210;5.160;2023-04-05T00:41:09;102589.31;;;6.42;58.04
66524;BME280;53350;52.210;5.160;2023-04-05T00:43:36;102590.94;;;6.40;57.85
66524;BME280;53350;52.210;5.160;2023-04-05T00:46:03;102583.09;;;6.35;57.96
66524;BME280;53350;52.210;5.160;2023-04-05T00:48:31;102583.00;;;6.32;58.16
66524;BME280;53350;52.210;5.160;2023-04-05T00:50:58;102582.16;;;6.32;58.37
66524;BME280;53350;52.210;5.160;2023-04-05T00:53:25;102586.28;;;6.28;58.04
66524;BME280;53350;52.210;5.160;2023-04-05T00:55:53;102581.91;;;6.25;57.90
66524;BME280;53350;52.210;5.160;2023-04-05T00:58:20;102580.03;;;6.20;58.55
66524;BME280;53350;52.210;5.160;2023-04-05T01:00:55;102567.69;;;6.08;58.12
66524;BME280;53350;52.210;5.160;2023-04-05T01:03:26;102577.22;;;6.12;58.42
66524;BME280;53350;52.210;5.160;2023-04-05T01:06:03;102577.00;;;6.06;58.84
66524;BME280;53350;52.210;5.160;2023-04-05T01:08:36;102571.75;;;6.01;58.39
66524;BME280;53350;52.210;5.160;2023-04-05T01:11:05;102575.09;;;6.00;58.45
66524;BME280;53350;52.210;5.160;2023-04-05T01:13:34;102571.75;;;6.01;58.98
66524;BME280;53350;52.210;5.160;2023-04-05T01:16:01;102570.84;;;6.01;59.01
66524;BME280;53350;52.210;5.160;2023-04-05T01:18:27;102570.78;;;5.99;58.86
66524;BME280;53350;52.210;5.160;2023-04-05T01:21:13;102562.84;;;5.91;58.89
66524;BME280;53350;52.210;5.160;2023-04-05T01:23:54;102566.19;;;5.90;58.83
66524;BME280;53350;52.210;5.160;2023-04-05T01:26:52;102557.66;;;5.90;59.10
66524;BME280;53350;52.210;5.160;2023-04-05T01:29:53;102560.06;;;5.85;59.43
66524;BME280;53350;52.210;5.160;2023-04-05T01:32:39;102557.41;;;5.82;58.96
66524;BME280;53350;52.210;5.160;2023-04-05T01:35:09;102551.34;;;5.80;59.08
66524;BME280;53350;52.210;5.160;2023-04-05T01:37:39;102554.72;;;5.79;59.43
66524;BME280;53350;52.210;5.160;2023-04-05T01:40:07;102549.50;;;5.76;59.31
66524;BME280;53350;52.210;5.160;2023-04-05T01:42:35;102547.88;;;5.78;59.34
66524;BME280;53350;52.210;5.160;2023-04-05T01:45:03;102544.53;;;5.81;59.43
66524;BME280;53350;52.210;5.160;2023-04-05T01:47:30;102546.41;;;5.85;59.38
66524;BME280;53350;52.210;5.160;2023-04-05T01:49:57;102544.78;;;5.87;59.66
66524;BME280;53350;52.210;5.160;2023-04-05T01:52:23;102541.47;;;5.89;59.54
66524;BME280;53350;52.210;5.160;2023-04-05T01:54:49;102544.13;;;5.92;59.56
66524;BME280;53350;52.210;5.160;2023-04-05T01:57:16;102536.44;;;5.92;59.39
66524;BME280;53350;52.210;5.160;2023-04-05T01:59:42;102530.44;;;5.92;59.57
66524;BME280;53350;52.210;5.160;2023-04-05T02:02:10;102543.19;;;5.90;59.17
66524;BME280;53350;52.210;5.160;2023-04-05T02:04:36;102535.41;;;5.87;59.08
66524;BME280;53350;52.210;5.160;2023-04-05T02:07:03;102538.47;;;5.77;59.34
66524;BME280;53350;52.210;5.160;2023-04-05T02:09:29;102531.41;;;5.70;59.58
66524;BME280;53350;52.210;5.160;2023-04-05T02:11:56;102533.91;;;5.68;59.97
66524;BME280;53350;52.210;5.160;2023-04-05T02:14:23;102529.75;;;5.72;59.70
66524;BME280;53350;52.210;5.160;2023-04-05T02:16:50;102526.38;;;5.73;60.12
66524;BME280;53350;52.210;5.160;2023-04-05T02:19:20;102515.25;;;5.71;59.79
66524;BME280;53350;52.210;5.160;2023-04-05T02:21:47;102524.59;;;5.70;59.93
66524;BME280;53350;52.210;5.160;2023-04-05T02:24:14;102515.16;;;5.68;59.62
66524;BME280;53350;52.210;5.160;2023-04-05T02:26:41;102511.66;;;5.66;59.72
66524;BME280;53350;52.210;5.160;2023-04-05T02:29:07;102515.00;;;5.65;60.06
66524;BME280;53350;52.210;5.160;2023-04-05T02:31:34;102516.66;;;5.63;60.02
66524;BME280;53350;52.210;5.160;2023-04-05T02:34:00;102516.56;;;5.60;60.30
66524;BME280;53350;52.210;5.160;2023-04-05T02:36:28;102513.00;;;5.56;60.38
66524;BME280;53350;52.210;5.160;2023-04-05T02:38:54;102507.78;;;5.53;60.34
66524;BME280;53350;52.210;5.160;2023-04-05T02:41:21;102505.19;;;5.51;60.50
66524;BME280;53350;52.210;5.160;2023-04-05T02:43:50;102506.81;;;5.49;60.73
66524;BME280;53350;52.210;5.160;2023-04-05T02:46:16;102508.50;;;5.49;60.64
66524;BME280;53350;52.210;5.160;2023-04-05T02:48:44;102502.47;;;5.47;60.49
66524;BME280;53350;52.210;5.160;2023-04-05T02:51:10;102510.06;;;5.45;60.45
66524;BME280;53350;52.210;5.160;2023-04-05T02:53:38;102503.22;;;5.44;61.03
66524;BME280;53350;52.210;5.160;2023-04-05T02:56:05;102498.84;;;5.42;60.76
66524;BME280;53350;52.210;5.160;2023-04-05T02:58:31;102494.34;;;5.34;60.83
66524;BME280;53350;52.210;5.160;2023-04-05T03:00:58;102493.28;;;5.28;61.19
66524;BME280;53350;52.210;5.160;2023-04-05T03:03:25;102488.88;;;5.23;61.26
66524;BME280;53350;52.210;5.160;2023-04-05T03:05:57;102483.59;;;5.19;61.33
66524;BME280;53350;52.210;5.160;2023-04-05T03:08:24;102492.06;;;5.18;61.69
66524;BME280;53350;52.210;5.160;2023-04-05T03:10:53;102480.94;;;5.16;61.48
66524;BME280;53350;52.210;5.160;2023-04-05T03:13:19;102483.44;;;5.14;61.69
66524;BME280;53350;52.210;5.160;2023-04-05T03:15:46;102484.94;;;5.09;61.87
66524;BME280;53350;52.210;5.160;2023-04-05T03:18:12;102479.59;;;5.03;61.63
66524;BME280;53350;52.210;5.160;2023-04-05T03:20:39;102477.84;;;5.02;62.05
66524;BME280;53350;52.210;5.160;2023-04-05T03:23:06;102474.34;;;4.98;61.94
66524;BME280;53350;52.210;5.160;2023-04-05T03:25:33;102473.38;;;4.96;62.03
66524;BME280;53350;52.210;5.160;2023-04-05T03:28:02;102475.78;;;4.92;61.97
66524;BME280;53350;52.210;5.160;2023-04-05T03:30:30;102476.53;;;4.89;62.76
66524;BME280;53350;52.210;5.160;2023-04-05T03:32:56;102472.94;;;4.84;62.52
66524;BME280;53350;52.210;5.160;2023-04-05T03:35:25;102470.28;;;4.81;62.89
66524;BME280;53350;52.210;5.160;2023-04-05T03:37:51;102465.16;;;4.81;62.94
66524;BME280;53350;52.210;5.160;2023-04-05T03:40:18;102472.84;;;4.81;62.57
66524;BME280;53350;52.210;5.160;2023-04-05T03:42:44;102474.50;;;4.80;62.91
66524;BME280;53350;52.210;5.160;2023-04-05T03:45:12;102472.75;;;4.79;62.84
66524;BME280;53350;52.210;5.160;2023-04-05T03:47:39;102471.72;;;4.74;62.54
66524;BME280;53350;52.210;5.160;2023-04-05T03:50:07;102467.34;;;4.72;62.66
66524;BME280;53350;52.210;5.160;2023-04-05T03:52:33;102471.53;;;4.69;63.13
66524;BME280;53350;52.210;5.160;2023-04-05T03:55:00;102466.19;;;4.63;62.86
66524;BME280;53350;52.210;5.160;2023-04-05T03:57:27;102475.53;;;4.63;62.97
66524;BME280;53350;52.210;5.160;2023-04-05T03:59:53;102469.50;;;4.61;62.94
66524;BME280;53350;52.210;5.160;2023-04-05T04:02:21;102476.34;;;4.62;63.05
66524;BME280;53350;52.210;5.160;2023-04-05T04:04:47;102467.81;;;4.61;62.78
66524;BME280;53350;52.210;5.160;2023-04-05T04:07:14;102482.22;;;4.59;62.80
66524;BME280;53350;52.210;5.160;2023-04-05T04:09:40;102478.66;;;4.56;63.16
66524;BME280;53350;52.210;5.160;2023-04-05T04:12:07;102479.41;;;4.53;62.84
66524;BME280;53350;52.210;5.160;2023-04-05T04:14:34;102472.53;;;4.50;62.96
66524;BME280;53350;52.210;5.160;2023-04-05T04:17:00;102478.44;;;4.49;63.14
66524;BME280;53350;52.210;5.160;2023-04-05T04:19:28;102474.13;;;4.48;63.31
66524;BME280;53350;52.210;5.160;2023-04-05T04:21:55;102470.72;;;4.48;63.37
66524;BME280;53350;52.210;5.160;2023-04-05T04:24:23;102481.78;;;4.48;63.15
66524;BME280;53350;52.210;5.160;2023-04-05T04:26:51;102470.81;;;4.51;63.16
66524;BME280;53350;52.210;5.160;2023-04-05T04:29:19;102468.28;;;4.51;63.10
66524;BME280;53350;52.210;5.160;2023-04-05T04:31:55;102463.97;;;4.50;62.99
66524;BME280;53350;52.210;5.160;2023-04-05T04:34:21;102471.56;;;4.48;63.15
66524;BME280;53350;52.210;5.160;2023-04-05T04:36:51;102469.88;;;4.49;63.00
66524;BME280;53350;52.210;5.160;2023-04-05T04:39:26;102468.28;;;4.51;63.10
66524;BME280;53350;52.210;5.160;2023-04-05T04:41:56;102476.91;;;4.55;63.15
66524;BME280;53350;52.210;5.160;2023-04-05T04:44:22;102478.66;;;4.56;63.19
66524;BME280;53350;52.210;5.160;2023-04-05T04:46:52;102471.84;;;4.56;63.01
66524;BME280;53350;52.210;5.160;2023-04-05T04:49:19;102471.00;;;4.56;63.05
66524;BME280;53350;52.210;5.160;2023-04-05T04:51:45;102463.34;;;4.56;62.83
66524;BME280;53350;52.210;5.160;2023-04-05T04:54:13;102462.53;;;4.57;63.24
66524;BME280;53350;52.210;5.160;2023-04-05T04:56:45;102461.81;;;4.59;63.24
66524;BME280;53350;52.210;5.160;2023-04-05T04:59:11;102460.06;;;4.58;63.16
66524;BME280;53350;52.210;5.160;2023-04-05T05:01:37;102462.53;;;4.57;63.08
66524;BME280;53350;52.210;5.160;2023-04-05T05:04:05;102458.31;;;4.57;63.19
66524;BME280;53350;52.210;5.160;2023-04-05T05:06:31;102457.50;;;4.58;62.87
66524;BME280;53350;52.210;5.160;2023-04-05T05:08:58;102455.06;;;4.61;62.80
66524;BME280;53350;52.210;5.160;2023-04-05T05:11:26;102455.06;;;4.61;62.88
66524;BME280;53350;52.210;5.160;2023-04-05T05:13:53;102460.97;;;4.60;62.91
66524;BME280;53350;52.210;5.160;2023-04-05T05:16:20;102456.63;;;4.58;62.60
66524;BME280;53350;52.210;5.160;2023-04-05T05:18:49;102455.63;;;4.54;62.51
66524;BME280;53350;52.210;5.160;2023-04-05T05:21:16;102453.03;;;4.52;62.45
66524;BME280;53350;52.210;5.160;2023-04-05T05:23:42;102458.06;;;4.51;62.74
66524;BME280;53350;52.210;5.160;2023-04-05T05:26:09;102462.31;;;4.50;62.81
66524;BME280;53350;52.210;5.160;2023-04-05T05:28:38;102461.44;;;4.50;62.58
66524;BME280;53350;52.210;5.160;2023-04-05T05:31:05;102453.81;;;4.51;62.58
66524;BME280;53350;52.210;5.160;2023-04-05T05:33:31;102457.28;;;4.52;62.47
66524;BME280;53350;52.210;5.160;2023-04-05T05:35:57;102463.16;;;4.51;62.39
66524;BME280;53350;52.210;5.160;2023-04-05T05:38:24;102453.66;;;4.47;62.71
66524;BME280;53350;52.210;5.160;2023-04-05T05:40:54;102463.84;;;4.47;62.87
66524;BME280;53350;52.210;5.160;2023-04-05T05:43:20;102457.28;;;4.52;62.60
66524;BME280;53350;52.210;5.160;2023-04-05T05:45:48;102455.56;;;4.52;62.55
66524;BME280;53350;52.210;5.160;2023-04-05T05:48:15;102458.81;;;4.48;62.53
66524;BME280;53350;52.210;5.160;2023-04-05T05:50:43;102448.31;;;4.41;62.39
66524;BME280;53350;52.210;5.160;2023-04-05T05:53:13;102460.63;;;4.51;62.54
66524;BME280;53350;52.210;5.160;2023-04-05T05:55:39;102469.19;;;4.53;62.79
66524;BME280;53350;52.210;5.160;2023-04-05T05:58:06;102471.13;;;4.59;62.62
66524;BME280;53350;52.210;5.160;2023-04-05T06:00:32;102468.78;;;4.65;62.62
66524;BME280;53350;52.210;5.160;2023-04-05T06:03:00;102468.94;;;4.68;62.55
66524;BME280;53350;52.210;5.160;2023-04-05T06:05:26;102468.22;;;4.72;62.08
66524;BME280;53350;52.210;5.160;2023-04-05T06:07:53;102471.81;;;4.77;62.07
66524;BME280;53350;52.210;5.160;2023-04-05T06:10:19;102471.13;;;4.81;62.41
66524;BME280;53350;52.210;5.160;2023-04-05T06:12:46;102473.00;;;4.85;62.07
66524;BME280;53350;52.210;5.160;2023-04-05T06:15:12;102473.06;;;4.87;61.92
66524;BME280;53350;52.210;5.160;2023-04-05T06:17:40;102474.03;;;4.91;61.77
66524;BME280;53350;52.210;5.160;2023-04-05T06:20:09;102469.09;;;4.95;61.70
66524;BME280;53350;52.210;5.160;2023-04-05T06:22:36;102470.94;;;4.99;61.51
66524;BME280;53350;52.210;5.160;2023-04-05T06:25:05;102460.84;;;5.02;61.80
66524;BME280;53350;52.210;5.160;2023-04-05T06:27:32;102462.00;;;5.11;61.87
66524;BME280;53350;52.210;5.160;2023-04-05T06:29:58;102458.84;;;5.18;61.74
66524;BME280;53350;52.210;5.160;2023-04-05T06:32:25;102459.00;;;5.22;61.49
66524;BME280;53350;52.210;5.160;2023-04-05T06:34:51;102460.28;;;5.34;61.63
66524;BME280;53350;52.210;5.160;2023-04-05T06:37:19;102457.44;;;5.50;61.34
66524;BME280;53350;52.210;5.160;2023-04-05T06:39:45;102458.91;;;5.68;60.72
66524;BME280;53350;52.210;5.160;2023-04-05T06:42:12;102458.59;;;5.84;60.79
66524;BME280;53350;52.210;5.160;2023-04-05T06:44:38;102458.47;;;6.05;59.55
66524;BME280;53350;52.210;5.160;2023-04-05T06:47:05;102452.94;;;6.19;59.34
66524;BME280;53350;52.210;5.160;2023-04-05T06:49:31;102451.63;;;6.32;59.10
66524;BME280;53350;52.210;5.160;2023-04-05T06:51:57;102447.91;;;6.49;58.75
66524;BME280;53350;52.210;5.160;2023-04-05T06:54:25;102444.97;;;6.66;58.51
66524;BME280;53350;52.210;5.160;2023-04-05T06:56:52;102444.69;;;6.85;58.03
66524;BME280;53350;52.210;5.160;2023-04-05T06:59:20;102442.78;;;7.08;57.56
66524;BME280;53350;52.210;5.160;2023-04-05T07:01:47;102449.38;;;7.30;57.44
66524;BME280;53350;52.210;5.160;2023-04-05T07:04:13;102448.97;;;7.48;55.98
66524;BME280;53350;52.210;5.160;2023-04-05T07:06:40;102446.00;;;7.65;54.88
66524;BME280;53350;52.210;5.160;2023-04-05T07:09:06;102447.25;;;7.81;55.08
66524;BME280;53350;52.210;5.160;2023-04-05T07:11:34;102446.84;;;7.99;54.75
66524;BME280;53350;52.210;5.160;2023-04-05T07:14:00;102443.75;;;8.14;54.65
66524;BME280;53350;52.210;5.160;2023-04-05T07:16:27;102448.38;;;8.27;54.10
66524;BME280;53350;52.210;5.160;2023-04-05T07:18:54;102444.38;;;8.39;54.08
66524;BME280;53350;52.210;5.160;2023-04-05T07:21:21;102441.22;;;8.50;53.68
66524;BME280;53350;52.210;5.160;2023-04-05T07:23:48;102441.56;;;8.67;53.13
66524;BME280;53350;52.210;5.160;2023-04-05T07:26:14;102439.28;;;8.80;52.97
66524;BME280;53350;52.210;5.160;2023-04-05T07:28:42;102439.53;;;8.92;52.95
66524;BME280;53350;52.210;5.160;2023-04-05T07:31:08;102439.78;;;9.04;52.59
66524;BME280;53350;52.210;5.160;2023-04-05T07:33:35;102440.03;;;9.17;51.57
66524;BME280;53350;52.210;5.160;2023-04-05T07:36:01;102434.31;;;9.32;51.00
66524;BME280;53350;52.210;5.160;2023-04-05T07:38:28;102436.34;;;9.51;50.82
66524;BME280;53350;52.210;5.160;2023-04-05T07:40:55;102427.31;;;9.72;50.17
66524;BME280;53350;52.210;5.160;2023-04-05T07:43:21;102431.06;;;9.92;49.76
66524;BME280;53350;52.210;5.160;2023-04-05T07:45:51;102423.50;;;10.03;49.45
66524;BME280;53350;52.210;5.160;2023-04-05T07:48:18;102425.34;;;10.12;49.06
66524;BME280;53350;52.210;5.160;2023-04-05T07:50:44;102425.59;;;10.27;48.83
66524;BME280;53350;52.210;5.160;2023-04-05T07:53:12;102431.84;;;10.43;48.36
66524;BME280;53350;52.210;5.160;2023-04-05T07:55:38;102427.78;;;10.59;47.70
66524;BME280;53350;52.210;5.160;2023-04-05T07:58:05;102418.53;;;10.75;47.73
66524;BME280;53350;52.210;5.160;2023-04-05T08:00:31;102423.91;;;10.92;46.50
66524;BME280;53350;52.210;5.160;2023-04-05T08:02:59;102426.63;;;11.08;46.17
66524;BME280;53350;52.210;5.160;2023-04-05T08:05:26;102413.91;;;11.23;45.34
66524;BME280;53350;52.210;5.160;2023-04-05T08:07:53;102422.66;;;11.39;44.70
66524;BME280;53350;52.210;5.160;2023-04-05T08:10:20;102421.06;;;11.51;44.30
66524;BME280;53350;52.210;5.160;2023-04-05T08:12:46;102416.03;;;11.64;44.33
66524;BME280;53350;52.210;5.160;2023-04-05T08:15:12;102413.56;;;11.78;43.71
66524;BME280;53350;52.210;5.160;2023-04-05T08:17:39;102411.06;;;11.89;42.46
66524;BME280;53350;52.210;5.160;2023-04-05T08:20:08;102409.34;;;11.93;41.94
66524;BME280;53350;52.210;5.160;2023-04-05T08:22:34;102409.47;;;12.02;42.66
66524;BME280;53350;52.210;5.160;2023-04-05T08:25:01;102407.81;;;12.13;41.67
66524;BME280;53350;52.210;5.160;2023-04-05T08:27:27;102407.03;;;12.25;42.06
66524;BME280;53350;52.210;5.160;2023-04-05T08:29:54;102407.06;;;12.31;41.55
66524;BME280;53350;52.210;5.160;2023-04-05T08:32:20;102401.94;;;12.41;41.47
66524;BME280;53350;52.210;5.160;2023-04-05T08:34:47;102404.59;;;12.53;38.61
66524;BME280;53350;52.210;5.160;2023-04-05T08:37:14;102402.88;;;12.61;37.78
66524;BME280;53350;52.210;5.160;2023-04-05T08:39:41;102404.66;;;12.68;37.34
66524;BME280;53350;52.210;5.160;2023-04-05T08:42:10;102398.63;;;12.71;37.42
66524;BME280;53350;52.210;5.160;2023-04-05T08:44:40;102393.53;;;12.82;37.17
66524;BME280;53350;52.210;5.160;2023-04-05T08:47:07;102389.22;;;12.93;35.29
66524;BME280;53350;52.210;5.160;2023-04-05T08:49:34;102390.97;;;12.99;35.40
66524;BME280;53350;52.210;5.160;2023-04-05T08:52:02;102397.00;;;13.02;34.52
66524;BME280;53350;52.210;5.160;2023-04-05T08:54:30;102392.69;;;13.01;35.34
66524;BME280;53350;52.210;5.160;2023-04-05T08:56:56;102384.94;;;13.00;34.64
66524;BME280;53350;52.210;5.160;2023-04-05T08:59:24;102384.06;;;12.96;36.34
66524;BME280;53350;52.210;5.160;2023-04-05T09:01:52;102383.19;;;12.97;35.79
66524;BME280;53350;52.210;5.160;2023-04-05T09:04:20;102391.84;;;13.10;35.17
66524;BME280;53350;52.210;5.160;2023-04-05T09:06:49;102390.16;;;13.25;35.54
66524;BME280;53350;52.210;5.160;2023-04-05T09:09:17;102378.13;;;13.39;35.66
66524;BME280;53350;52.210;5.160;2023-04-05T09:11:47;102386.75;;;13.53;35.40
66524;BME280;53350;52.210;5.160;2023-04-05T09:14:13;102382.44;;;13.52;34.57
66524;BME280;53350;52.210;5.160;2023-04-05T09:16:41;102379.84;;;13.51;34.74
66524;BME280;53350;52.210;5.160;2023-04-05T09:19:08;102384.19;;;13.52;33.90
66524;BME280;53350;52.210;5.160;2023-04-05T09:21:57;102369.50;;;13.48;34.06
66524;BME280;53350;52.210;5.160;2023-04-05T09:24:35;102373.81;;;13.53;34.26
66524;BME280;53350;52.210;5.160;2023-04-05T09:27:06;102365.19;;;13.57;34.48
66524;BME280;53350;52.210;5.160;2023-04-05T09:29:32;102367.78;;;13.59;34.43
66524;BME280;53350;52.210;5.160;2023-04-05T09:32:00;102370.38;;;13.56;34.19
66524;BME280;53350;52.210;5.160;2023-04-05T09:34:28;102371.22;;;13.53;34.11
66524;BME280;53350;52.210;5.160;2023-04-05T09:36:55;102363.47;;;13.56;33.54
66524;BME280;53350;52.210;5.160;2023-04-05T09:39:27;102371.22;;;13.52;33.22
66524;BME280;53350;52.210;5.160;2023-04-05T09:42:10;102368.63;;;13.58;33.63
66524;BME280;53350;52.210;5.160;2023-04-05T09:44:50;102356.56;;;13.59;33.23
66524;BME280;53350;52.210;5.160;2023-04-05T09:47:18;102355.69;;;13.60;33.62
66524;BME280;53350;52.210;5.160;2023-04-05T09:49:45;102361.75;;;13.63;34.25
66524;BME280;53350;52.210;5.160;2023-04-05T09:52:21;102358.28;;;13.73;34.31
66524;BME280;53350;52.210;5.160;2023-04-05T09:54:51;102358.28;;;13.73;34.02
66524;BME280;53350;52.210;5.160;2023-04-05T09:57:19;102353.06;;;13.81;33.91
66524;BME280;53350;52.210;5.160;2023-04-05T09:59:46;102347.91;;;13.89;33.35
66524;BME280;53350;52.210;5.160;2023-04-05T10:02:13;102354.78;;;13.95;33.44
66524;BME280;53350;52.210;5.160;2023-04-05T10:04:41;102344.41;;;14.02;34.26
66524;BME280;53350;52.210;5.160;2023-04-05T10:07:10;102347.00;;;14.05;33.09
66524;BME280;53350;52.210;5.160;2023-04-05T10:09:37;102347.84;;;14.07;33.18
66524;BME280;53350;52.210;5.160;2023-04-05T10:12:05;102343.53;;;14.13;33.91
66524;BME280;53350;52.210;5.160;2023-04-05T10:14:34;102346.97;;;14.15;33.43
66524;BME280;53350;52.210;5.160;2023-04-05T10:17:07;102334.00;;;14.13;33.85
66524;BME280;53350;52.210;5.160;2023-04-05T10:19:43;102327.09;;;14.09;32.95
66524;BME280;53350;52.210;5.160;2023-04-05T10:22:22;102330.59;;;14.08;32.63
66524;BME280;53350;52.210;5.160;2023-04-05T10:24:53;102329.72;;;14.03;32.29
66524;BME280;53350;52.210;5.160;2023-04-05T10:27:24;102318.50;;;13.95;32.59
66524;BME280;53350;52.210;5.160;2023-04-05T10:30:02;102326.34;;;13.79;33.15
66524;BME280;53350;52.210;5.160;2023-04-05T10:32:39;102313.38;;;13.71;32.61
66524;BME280;53350;52.210;5.160;2023-04-05T10:35:08;102312.56;;;13.60;32.84
66524;BME280;53350;52.210;5.160;2023-04-05T10:37:40;102317.72;;;13.65;32.45
66524;BME280;53350;52.210;5.160;2023-04-05T10:40:14;102319.47;;;13.66;33.01
66524;BME280;53350;52.210;5.160;2023-04-05T10:42:45;102311.69;;;13.69;32.94
66524;BME280;53350;52.210;5.160;2023-04-05T10:45:17;102317.72;;;13.66;33.16
66524;BME280;53350;52.210;5.160;2023-04-05T10:47:49;102310.81;;;13.62;33.46
66524;BME280;53350;52.210;5.160;2023-04-05T10:50:21;102310.81;;;13.62;33.05
66524;BME280;53350;52.210;5.160;2023-04-05T10:52:49;102314.25;;;13.58;32.91
66524;BME280;53350;52.210;5.160;2023-04-05T10:55:16;102308.22;;;13.59;33.39
66524;BME280;53350;52.210;5.160;2023-04-05T10:57:44;102306.50;;;13.66;33.06
66524;BME280;53350;52.210;5.160;2023-04-05T11:00:14;102297.84;;;13.78;33.33
66524;BME280;53350;52.210;5.160;2023-04-05T11:02:41;102303.88;;;13.90;33.33
66524;BME280;53350;52.210;5.160;2023-04-05T11:05:28;102294.34;;;13.97;33.39
66524;BME280;53350;52.210;5.160;2023-04-05T11:07:58;102290.91;;;13.90;32.76
66524;BME280;53350;52.210;5.160;2023-04-05T11:10:25;102292.59;;;13.93;32.82
66524;BME280;53350;52.210;5.160;2023-04-05T11:13:03;102290.03;;;13.88;33.94
66524;BME280;53350;52.210;5.160;2023-04-05T11:15:32;102295.22;;;13.99;33.00
66524;BME280;53350;52.210;5.160;2023-04-05T11:18:09;102278.81;;;13.94;33.68
66524;BME280;53350;52.210;5.160;2023-04-05T11:20:46;102278.81;;;13.94;34.23
66524;BME280;53350;52.210;5.160;2023-04-05T11:23:16;102282.25;;;14.01;33.47
66524;BME280;53350;52.210;5.160;2023-04-05T11:25:49;102283.06;;;14.07;33.87
66524;BME280;53350;52.210;5.160;2023-04-05T11:28:37;102277.03;;;14.08;34.23
66524;BME280;53350;52.210;5.160;2023-04-05T11:31:14;102271.84;;;14.08;33.64
66524;BME280;53350;52.210;5.160;2023-04-05T11:33:54;102277.00;;;14.10;33.90
66524;BME280;53350;52.210;5.160;2023-04-05T11:36:35;102266.66;;;14.07;33.74
66524;BME280;53350;52.210;5.160;2023-04-05T11:39:22;102264.94;;;14.06;33.71
66524;BME280;53350;52.210;5.160;2023-04-05T11:41:53;102264.91;;;14.11;34.35
66524;BME280;53350;52.210;5.160;2023-04-05T11:44:21;102265.81;;;14.05;34.19
66524;BME280;53350;52.210;5.160;2023-04-05T11:46:49;102265.81;;;14.06;34.16
66524;BME280;53350;52.210;5.160;2023-04-05T11:49:16;102254.56;;;14.09;34.40
66524;BME280;53350;52.210;5.160;2023-04-05T11:51:42;102257.13;;;14.17;34.08
66524;BME280;53350;52.210;5.160;2023-04-05T11:54:12;102247.59;;;14.20;34.16
66524;BME280;53350;52.210;5.160;2023-04-05T11:56:39;102246.72;;;14.23;33.87
66524;BME280;53350;52.210;5.160;2023-04-05T11:59:06;102244.97;;;14.25;34.01
66524;BME280;53350;52.210;5.160;2023-04-05T12:01:32;102245.00;;;14.22;34.22
66524;BME280;53350;52.210;5.160;2023-04-05T12:04:00;102238.94;;;14.23;34.28
66524;BME280;53350;52.210;5.160;2023-04-05T12:06:28;102232.06;;;14.20;33.98
66524;BME280;53350;52.210;5.160;2023-04-05T12:08:54;102231.16;;;14.24;34.20
66524;BME280;53350;52.210;5.160;2023-04-05T12:11:23;102227.66;;;14.33;34.12
66524;BME280;53350;52.210;5.160;2023-04-05T12:13:52;102232.81;;;14.44;34.10
66524;BME280;53350;52.210;5.160;2023-04-05T12:16:19;102229.31;;;14.50;34.49
66524;BME280;53350;52.210;5.160;2023-04-05T12:18:52;102220.69;;;14.44;33.49
66524;BME280;53350;52.210;5.160;2023-04-05T12:21:21;102211.16;;;14.47;33.51
66524;BME280;53350;52.210;5.160;2023-04-05T12:23:47;102223.22;;;14.52;34.14
66524;BME280;53350;52.210;5.160;2023-04-05T12:26:14;102211.94;;;14.58;33.20
66524;BME280;53350;52.210;5.160;2023-04-05T12:28:52;102218.00;;;14.55;33.68
66524;BME280;53350;52.210;5.160;2023-04-05T12:31:37;102222.41;;;14.49;34.06
66524;BME280;53350;52.210;5.160;2023-04-05T12:34:04;102220.66;;;14.48;34.57
66524;BME280;53350;52.210;5.160;2023-04-05T12:36:32;102218.94;;;14.50;34.15
66524;BME280;53350;52.210;5.160;2023-04-05T12:38:59;102215.44;;;14.54;34.06
66524;BME280;53350;52.210;5.160;2023-04-05T12:41:29;102214.59;;;14.53;34.17
66524;BME280;53350;52.210;5.160;2023-04-05T12:43:56;102212.00;;;14.50;34.25
66524;BME280;53350;52.210;5.160;2023-04-05T12:46:37;102212.00;;;14.52;34.30
66524;BME280;53350;52.210;5.160;2023-04-05T12:49:04;102209.41;;;14.53;33.94
66524;BME280;53350;52.210;5.160;2023-04-05T12:51:32;102212.88;;;14.49;33.73
66524;BME280;53350;52.210;5.160;2023-04-05T12:54:00;102205.97;;;14.51;33.75
66524;BME280;53350;52.210;5.160;2023-04-05T12:56:27;102203.34;;;14.54;33.42
66524;BME280;53350;52.210;5.160;2023-04-05T12:58:54;102195.56;;;14.54;33.51
66524;BME280;53350;52.210;5.160;2023-04-05T13:01:21;102192.06;;;14.57;33.71
66524;BME280;53350;52.210;5.160;2023-04-05T13:03:47;102188.63;;;14.58;33.24